Time;durP1;ratioP1;P1;durP2;ratioP2;P2;SDS_P1;SDS_P2;PMS_P1;PMS_P2;Temp;Humidity;BMP_temperature;BMP_pressure;BME280_temperature;BME280_humidity;BME280_pressure;Samples;Min_cycle;Max_cycle;Signal;HPM_P1;HPM_P2
2022/05/12 00:02:18;;;;;;;;;;;;;;;17.27;40.85;101171.97;4809112;29;905;-61
2022/05/12 00:04:44;;;;;;;;;;;;;;;17.57;43.12;101175.94;4809158;29;800;-62
2022/05/12 00:07:09;;;;;;;;;;;;;;;17.95;44.45;101174.69;4809412;29;783;-62
2022/05/12 00:09:35;;;;;;;;;;;;;;;18.24;45.31;101170.56;4809491;29;904;-62
2022/05/12 00:12:00;;;;;;;;;;;;;;;18.49;45.78;101171.66;4809142;29;878;-62
2022/05/12 00:14:25;;;;;;;;;;;;;;;18.65;46.10;101176.06;4808902;29;1907;-62
2022/05/12 00:16:51;;;;;;;;;;;;;;;18.47;45.98;101172.75;4808936;29;1036;-63
2022/05/12 00:19:16;;;;;;;;;;;;;;;18.22;45.13;101167.28;4809036;29;782;-60
2022/05/12 00:21:43;;;;;;;;;;;;;;;18.05;44.32;101170.28;4809253;29;942;-58
2022/05/12 00:24:09;;;;;;;;;;;;;;;17.80;42.76;101166.38;4809333;29;862;-62
2022/05/12 00:26:36;;;;;;;;;;;;;;;17.59;41.66;101171.81;4808212;29;866;-60
2022/05/12 00:29:02;;;;;;;;;;;;;;;17.45;40.78;101174.25;4808724;29;1056;-62
2022/05/12 00:31:28;;;;;;;;;;;;;;;17.30;40.25;101165.94;4809015;29;1059;-63
2022/05/12 00:33:54;;;;;;;;;;;;;;;17.24;39.88;101165.09;4808935;29;1964;-62
2022/05/12 00:36:19;;;;;;;;;;;;;;;17.15;39.38;101163.94;4808919;29;864;-62
2022/05/12 00:38:45;;;;;;;;;;;;;;;17.04;39.26;101171.34;4809123;29;753;-62
2022/05/12 00:41:10;;;;;;;;;;;;;;;17.10;39.86;101163.94;4808428;29;850;-63
2022/05/12 00:43:43;;;;;;;;;;;;;;;17.25;41.23;101171.41;4809336;29;785;-62
2022/05/12 00:46:13;;;;;;;;;;;;;;;17.57;42.81;101174.03;4808822;29;976;-62
2022/05/12 00:48:38;;;;;;;;;;;;;;;17.93;44.54;101171.34;4809699;29;776;-62
2022/05/12 00:51:04;;;;;;;;;;;;;;;18.19;45.86;101176.06;4812620;29;757;-62
2022/05/12 00:53:30;;;;;;;;;;;;;;;18.44;46.05;101181.56;4810968;29;1968;-62
2022/05/12 00:55:56;;;;;;;;;;;;;;;18.60;46.36;101167.78;4811930;29;737;-61
2022/05/12 00:58:21;;;;;;;;;;;;;;;18.37;45.75;101170.03;4812188;29;1015;-62
2022/05/12 01:00:46;;;;;;;;;;;;;;;18.20;45.19;101174.97;4810505;29;1009;-62
2022/05/12 01:03:16;;;;;;;;;;;;;;;17.99;43.68;101174.94;4810542;29;866;-63
2022/05/12 01:05:42;;;;;;;;;;;;;;;17.75;42.50;101175.44;4811839;29;898;-62
2022/05/12 01:08:11;;;;;;;;;;;;;;;17.61;41.72;101171.53;4812209;29;944;-63
2022/05/12 01:10:39;;;;;;;;;;;;;;;17.51;41.25;101179.75;4810849;29;784;-61
2022/05/12 01:13:04;;;;;;;;;;;;;;;17.37;40.61;101180.25;4812060;29;1961;-61
2022/05/12 01:15:30;;;;;;;;;;;;;;;17.28;40.37;101181.88;4811989;29;1005;-61
2022/05/12 01:18:05;;;;;;;;;;;;;;;17.22;40.09;101174.69;4811328;29;902;-61
2022/05/12 01:20:31;;;;;;;;;;;;;;;17.16;39.56;101173.03;4812086;29;869;-62
2022/05/12 01:22:57;;;;;;;;;;;;;;;17.06;39.84;101174.63;4811637;29;790;-61
2022/05/12 01:25:23;;;;;;;;;;;;;;;17.03;39.54;101169.66;4810583;29;776;-62
2022/05/12 01:27:49;;;;;;;;;;;;;;;17.05;40.02;101175.72;4811627;29;1147;-62
2022/05/12 01:30:15;;;;;;;;;;;;;;;17.33;41.60;101173.66;4811233;29;1028;-62
2022/05/12 01:32:43;;;;;;;;;;;;;;;17.73;43.76;101185.88;4811965;29;1981;-61
2022/05/12 01:35:09;;;;;;;;;;;;;;;18.13;45.11;101186.22;4811863;29;844;-61
2022/05/12 01:37:37;;;;;;;;;;;;;;;18.42;45.54;101178.25;4811367;29;1505;-62
2022/05/12 01:40:03;;;;;;;;;;;;;;;18.61;46.38;101178.53;4811559;29;866;-62
2022/05/12 01:42:28;;;;;;;;;;;;;;;18.52;46.45;101174.66;4811596;29;851;-62
2022/05/12 01:44:54;;;;;;;;;;;;;;;18.33;46.11;101179.94;4811251;29;883;-62
2022/05/12 01:47:19;;;;;;;;;;;;;;;18.12;45.03;101177.16;4811077;29;871;-60
2022/05/12 01:49:47;;;;;;;;;;;;;;;17.92;43.79;101177.97;4810131;29;859;-60
2022/05/12 01:52:12;;;;;;;;;;;;;;;17.72;42.17;101181.47;4811274;29;1970;-60
2022/05/12 01:54:38;;;;;;;;;;;;;;;17.48;41.12;101170.13;4811328;29;764;-60
2022/05/12 01:57:03;;;;;;;;;;;;;;;17.39;40.42;101171.75;4810968;29;910;-60
2022/05/12 01:59:29;;;;;;;;;;;;;;;17.24;39.80;101180.78;4810922;29;875;-60
2022/05/12 02:01:54;;;;;;;;;;;;;;;17.19;39.86;101169.75;4810916;29;1004;-60
2022/05/12 02:04:20;;;;;;;;;;;;;;;17.13;39.94;101174.41;4811395;29;751;-60
2022/05/12 02:06:45;;;;;;;;;;;;;;;17.28;40.99;101165.41;4810938;29;776;-60
2022/05/12 02:09:11;;;;;;;;;;;;;;;17.43;41.71;101170.09;4810470;29;913;-60
2022/05/12 02:11:36;;;;;;;;;;;;;;;17.58;42.55;101163.84;4811174;29;815;-60
2022/05/12 02:14:02;;;;;;;;;;;;;;;17.65;43.19;101175.41;4811211;29;1884;-60
2022/05/12 02:16:29;;;;;;;;;;;;;;;17.68;43.61;101174.84;4810725;29;1036;-60
2022/05/12 02:18:55;;;;;;;;;;;;;;;17.82;43.86;101177.09;4810978;29;820;-60
2022/05/12 02:21:20;;;;;;;;;;;;;;;17.83;44.16;101176.00;4810723;29;872;-60
2022/05/12 02:23:46;;;;;;;;;;;;;;;17.89;44.17;101174.91;4810896;29;726;-59
2022/05/12 02:26:11;;;;;;;;;;;;;;;17.93;43.98;101176.84;4810849;29;1132;-60
2022/05/12 02:28:37;;;;;;;;;;;;;;;17.94;44.34;101170.25;4810587;29;1241;-60
2022/05/12 02:31:02;;;;;;;;;;;;;;;17.96;44.14;101170.00;4810398;29;993;-60
2022/05/12 02:33:28;;;;;;;;;;;;;;;18.03;44.27;101181.53;4810053;29;1960;-60
2022/05/12 02:35:53;;;;;;;;;;;;;;;18.04;44.14;101172.19;4811222;29;863;-60
2022/05/12 02:38:19;;;;;;;;;;;;;;;18.04;44.41;101180.47;4810679;29;753;-60
2022/05/12 02:40:44;;;;;;;;;;;;;;;18.04;44.21;101183.22;4810307;29;790;-60
2022/05/12 02:43:25;;;;;;;;;;;;;;;18.08;44.30;101180.75;4810792;29;935;-60
2022/05/12 02:45:50;;;;;;;;;;;;;;;18.09;44.41;101194.22;4810585;29;973;-60
2022/05/12 02:48:17;;;;;;;;;;;;;;;18.12;44.66;101188.16;4809888;29;859;-60
2022/05/12 02:50:42;;;;;;;;;;;;;;;18.24;44.64;101195.34;4810579;29;777;-60
2022/05/12 02:53:08;;;;;;;;;;;;;;;18.30;44.54;101191.50;4810423;29;1899;-60
2022/05/12 02:55:33;;;;;;;;;;;;;;;18.26;44.72;101195.91;4809994;29;825;-60
2022/05/12 02:57:59;;;;;;;;;;;;;;;18.15;44.21;101199.75;4810311;29;860;-60
2022/05/12 03:00:24;;;;;;;;;;;;;;;18.01;43.55;101200.28;4809766;29;907;-59
2022/05/12 03:02:50;;;;;;;;;;;;;;;17.74;42.97;101197.69;4810072;29;744;-60
2022/05/12 03:05:15;;;;;;;;;;;;;;;17.58;41.65;101199.59;4810608;29;980;-59
2022/05/12 03:07:41;;;;;;;;;;;;;;;17.44;40.73;101196.50;4810060;29;792;-59
2022/05/12 03:10:06;;;;;;;;;;;;;;;17.32;40.07;101199.50;4809795;29;930;-59
2022/05/12 03:12:32;;;;;;;;;;;;;;;17.22;39.67;101196.69;4809415;29;2031;-60
2022/05/12 03:14:57;;;;;;;;;;;;;;;17.12;39.43;101193.91;4809823;29;1012;-59
2022/05/12 03:17:23;;;;;;;;;;;;;;;17.03;39.20;101201.81;4809303;29;837;-58
2022/05/12 03:19:48;;;;;;;;;;;;;;;17.00;38.74;101194.94;4809959;29;804;-60
2022/05/12 03:22:16;;;;;;;;;;;;;;;17.01;39.09;101199.34;4809936;29;889;-62
2022/05/12 03:24:42;;;;;;;;;;;;;;;16.98;39.44;101208.09;4809209;29;870;-61
2022/05/12 03:27:07;;;;;;;;;;;;;;;17.15;40.66;101201.59;4809537;29;1157;-61
2022/05/12 03:29:33;;;;;;;;;;;;;;;17.38;41.56;101203.09;4809509;29;825;-63
2022/05/12 03:31:58;;;;;;;;;;;;;;;17.64;43.51;101201.25;4809289;29;1040;-62
2022/05/12 03:34:24;;;;;;;;;;;;;;;18.01;44.84;101210.47;4809827;29;1978;-60
2022/05/12 03:36:50;;;;;;;;;;;;;;;18.33;45.50;101214.88;4809773;29;832;-59
2022/05/12 03:39:15;;;;;;;;;;;;;;;18.55;45.96;101203.59;4809545;29;902;-61
2022/05/12 03:41:41;;;;;;;;;;;;;;;18.70;46.20;101206.31;4809829;29;929;-61
2022/05/12 03:46:50;;;;;;;;;;;;;;;18.32;45.67;101205.81;4809454;29;1017;-63
2022/05/12 03:49:15;;;;;;;;;;;;;;;18.10;44.56;101204.16;4809519;29;705;-60
2022/05/12 03:51:41;;;;;;;;;;;;;;;17.88;43.27;101212.59;4808361;29;1329;-59
2022/05/12 03:54:07;;;;;;;;;;;;;;;17.65;42.02;101208.41;4808474;29;1910;-64
2022/05/12 03:56:32;;;;;;;;;;;;;;;17.48;41.04;101207.81;4809254;29;1357;-59
2022/05/12 03:58:58;;;;;;;;;;;;;;;17.39;40.28;101212.97;4809240;29;1463;-62
2022/05/12 04:01:23;;;;;;;;;;;;;;;17.30;39.63;101212.66;4808314;29;1250;-60
2022/05/12 04:03:48;;;;;;;;;;;;;;;17.22;39.48;101225.00;4808127;29;1431;-60
2022/05/12 04:06:14;;;;;;;;;;;;;;;17.10;39.31;101224.38;4802254;29;801;-63
2022/05/12 04:08:39;;;;;;;;;;;;;;;17.09;39.09;101219.97;4808412;29;1542;-59
2022/05/12 04:11:07;;;;;;;;;;;;;;;17.19;40.48;101228.28;4809251;29;1495;-61
2022/05/12 04:13:33;;;;;;;;;;;;;;;17.53;42.45;101238.91;4805569;29;1899;-61
2022/05/12 04:15:58;;;;;;;;;;;;;;;17.86;44.61;101225.78;4808017;29;1633;-63
2022/05/12 04:18:24;;;;;;;;;;;;;;;18.26;45.50;101245.44;4807730;29;1495;-58
2022/05/12 04:20:49;;;;;;;;;;;;;;;18.53;46.47;101236.91;4808200;29;1527;-59
2022/05/12 04:23:14;;;;;;;;;;;;;;;18.66;46.31;101241.03;4809287;29;758;-60
2022/05/12 04:25:40;;;;;;;;;;;;;;;18.44;46.16;101244.91;4812785;29;784;-59
2022/05/12 04:28:05;;;;;;;;;;;;;;;18.19;45.20;101256.72;4812655;29;1032;-59
2022/05/12 04:30:31;;;;;;;;;;;;;;;17.95;44.00;101257.22;4812083;29;942;-59
2022/05/12 04:35:11;;;;;;;;;;;;;;;17.73;42.52;101260.13;4812287;29;1900;-61
2022/05/12 04:35:42;;;;;;;;;;;;;;;17.57;41.20;101251.00;4812561;29;789;-59
2022/05/12 04:38:08;;;;;;;;;;;;;;;17.43;40.45;101253.44;4812473;29;800;-60
2022/05/12 04:40:33;;;;;;;;;;;;;;;17.36;39.99;101249.25;4812322;29;868;-59
2022/05/12 04:42:59;;;;;;;;;;;;;;;17.23;39.84;101250.56;4812564;29;909;-59
2022/05/12 04:45:25;;;;;;;;;;;;;;;17.16;39.55;101239.81;4812365;29;1177;-58
2022/05/12 04:47:50;;;;;;;;;;;;;;;17.10;39.34;101247.19;4801432;29;785;-58
2022/05/12 04:50:17;;;;;;;;;;;;;;;17.02;39.09;101253.19;4794174;30;812;-58
2022/05/12 04:52:43;;;;;;;;;;;;;;;17.12;40.08;101248.84;4799313;29;1978;-58
2022/05/12 04:55:10;;;;;;;;;;;;;;;17.44;42.15;101255.06;4812155;29;850;-57
2022/05/12 04:57:39;;;;;;;;;;;;;;;17.79;44.09;101256.31;4812447;29;813;-58
2022/05/12 05:00:07;;;;;;;;;;;;;;;18.13;45.83;101258.63;4812319;29;981;-58
2022/05/12 05:02:33;;;;;;;;;;;;;;;18.47;46.26;101262.81;4811987;29;753;-57
2022/05/12 05:04:58;;;;;;;;;;;;;;;18.76;46.69;101257.56;4812334;29;806;-60
2022/05/12 05:07:26;;;;;;;;;;;;;;;18.81;46.84;101262.25;4812118;29;858;-59
2022/05/12 05:09:51;;;;;;;;;;;;;;;17.97;48.50;101264.38;4811907;29;817;-59
2022/05/12 05:12:17;;;;;;;;;;;;;;;17.67;47.40;101271.38;4811970;29;837;-58
2022/05/12 05:14:42;;;;;;;;;;;;;;;17.73;45.08;101270.31;4811666;29;1974;-60
2022/05/12 05:17:08;;;;;;;;;;;;;;;17.62;43.13;101263.94;4811967;29;969;-59
2022/05/12 05:19:35;;;;;;;;;;;;;;;17.48;41.56;101262.78;4811652;29;827;-58
2022/05/12 05:22:00;;;;;;;;;;;;;;;17.40;40.97;101264.97;4811679;29;1074;-59
2022/05/12 05:24:26;;;;;;;;;;;;;;;17.31;40.13;101263.00;4812087;29;836;-57
2022/05/12 05:26:51;;;;;;;;;;;;;;;17.23;39.50;101272.56;4811721;29;772;-61
2022/05/12 05:29:17;;;;;;;;;;;;;;;17.11;39.27;101267.28;4811465;29;1265;-61
2022/05/12 05:31:42;;;;;;;;;;;;;;;17.08;39.55;101263.13;4810639;29;1297;-63
2022/05/12 05:34:09;;;;;;;;;;;;;;;17.08;39.60;101265.03;4810700;29;1968;-60
2022/05/12 05:36:35;;;;;;;;;;;;;;;17.30;41.54;101267.63;4811536;29;809;-60
2022/05/12 05:39:01;;;;;;;;;;;;;;;17.66;43.59;101273.31;4811014;29;794;-60
2022/05/12 05:41:26;;;;;;;;;;;;;;;17.99;45.49;101279.50;4810936;29;1554;-57
2022/05/12 05:43:52;;;;;;;;;;;;;;;18.32;46.60;101269.13;4810368;29;1396;-58
2022/05/12 05:46:17;;;;;;;;;;;;;;;18.57;47.19;101270.25;4811057;29;830;-60
2022/05/12 05:48:43;;;;;;;;;;;;;;;18.75;47.41;101274.38;4811285;29;772;-60
2022/05/12 05:53:54;;;;;;;;;;;;;;;18.40;45.96;101279.59;4805814;29;1903;-62
2022/05/12 05:56:20;;;;;;;;;;;;;;;18.20;44.88;101279.56;4793039;29;936;-61
2022/05/12 05:58:45;;;;;;;;;;;;;;;17.96;43.29;101280.03;4803814;29;908;-59
2022/05/12 06:01:11;;;;;;;;;;;;;;;17.79;42.24;101278.34;4811234;29;1055;-59
2022/05/12 06:03:36;;;;;;;;;;;;;;;17.68;41.01;101273.88;4808984;29;1237;-60
2022/05/12 06:06:02;;;;;;;;;;;;;;;17.56;40.32;101270.53;4811596;29;805;-58
2022/05/12 06:08:27;;;;;;;;;;;;;;;17.41;40.13;101277.59;4811019;29;1133;-58
2022/05/12 06:10:53;;;;;;;;;;;;;;;17.37;39.83;101278.41;4810654;29;851;-60
2022/05/12 06:13:19;;;;;;;;;;;;;;;17.31;39.35;101271.22;4811053;29;1968;-60
2022/05/12 06:15:44;;;;;;;;;;;;;;;17.19;39.29;101271.44;4811261;29;996;-60
2022/05/12 06:18:14;;;;;;;;;;;;;;;17.17;39.21;101268.13;4808538;29;1253;-60
2022/05/12 06:20:41;;;;;;;;;;;;;;;17.14;39.20;101274.97;4809563;29;1504;-60
2022/05/12 06:23:08;;;;;;;;;;;;;;;17.13;39.29;101269.75;4809893;29;889;-59
2022/05/12 06:25:34;;;;;;;;;;;;;;;17.39;41.38;101263.31;4807592;29;1224;-60
2022/05/12 06:27:59;;;;;;;;;;;;;;;17.74;43.54;101269.22;4809731;29;1331;-60
2022/05/12 06:30:25;;;;;;;;;;;;;;;18.12;45.33;101267.16;4809695;29;1198;-62
2022/05/12 06:32:51;;;;;;;;;;;;;;;18.41;46.16;101270.25;4810194;29;1981;-61
2022/05/12 06:35:16;;;;;;;;;;;;;;;18.69;46.90;101261.69;4810427;29;883;-58
2022/05/12 06:37:42;;;;;;;;;;;;;;;18.86;47.17;101265.00;4809975;29;963;-58
2022/05/12 06:40:08;;;;;;;;;;;;;;;18.73;47.34;101271.06;4810692;29;824;-59
2022/05/12 06:42:35;;;;;;;;;;;;;;;17.92;48.34;101265.19;4810546;29;1153;-58
2022/05/12 06:45:01;;;;;;;;;;;;;;;17.60;47.03;101260.66;4808911;29;1173;-60
2022/05/12 06:47:27;;;;;;;;;;;;;;;17.61;45.03;101262.28;4809407;29;1278;-61
2022/05/12 06:49:52;;;;;;;;;;;;;;;17.67;42.88;101260.38;4808554;29;1491;-61
2022/05/12 06:52:18;;;;;;;;;;;;;;;17.53;42.09;101263.66;4810133;29;978;-61
2022/05/12 06:54:44;;;;;;;;;;;;;;;17.50;40.90;101260.59;4809398;29;1912;-61
2022/05/12 06:57:10;;;;;;;;;;;;;;;17.42;40.70;101262.75;4809977;29;1199;-60
2022/05/12 06:59:36;;;;;;;;;;;;;;;17.38;40.79;101258.06;4809200;29;1523;-61
2022/05/12 07:02:02;;;;;;;;;;;;;;;17.32;40.35;101257.22;4804804;29;1328;-61
2022/05/12 07:04:29;;;;;;;;;;;;;;;17.22;40.38;101262.66;4804858;29;940;-63
2022/05/12 07:06:55;;;;;;;;;;;;;;;17.22;39.59;101259.91;4806725;29;1257;-62
2022/05/12 07:09:20;;;;;;;;;;;;;;;17.12;39.69;101254.34;4802846;29;1295;-62
2022/05/12 07:11:45;;;;;;;;;;;;;;;17.18;39.76;101256.03;4810200;29;808;-62
2022/05/12 07:14:12;;;;;;;;;;;;;;;17.26;40.59;101253.63;4805329;29;1919;-61
2022/05/12 07:16:37;;;;;;;;;;;;;;;17.49;42.36;101254.28;4795068;29;810;-61
2022/05/12 07:19:03;;;;;;;;;;;;;;;17.78;44.37;101253.81;4802110;29;1531;-61
2022/05/12 07:27:10;;;;;;;;;;;;;;;18.67;47.59;101259.22;4806427;29;1324;-61
2022/05/12 07:29:36;;;;;;;;;;;;;;;18.81;47.73;101257.56;4807869;29;1621;-61
2022/05/12 07:32:02;;;;;;;;;;;;;;;18.71;47.45;101257.56;4808719;29;1376;-61
2022/05/12 07:34:27;;;;;;;;;;;;;;;18.53;46.61;101256.19;4808642;29;1915;-61
2022/05/12 07:36:53;;;;;;;;;;;;;;;18.31;45.40;101261.94;4806958;29;1192;-62
2022/05/12 07:39:19;;;;;;;;;;;;;;;18.10;43.58;101255.59;4800480;29;1420;-61
2022/05/12 07:41:44;;;;;;;;;;;;;;;17.86;42.55;101257.97;4802212;29;1413;-61
2022/05/12 07:44:14;;;;;;;;;;;;;;;17.74;41.35;101255.44;4809259;29;1439;-62
2022/05/12 07:46:40;;;;;;;;;;;;;;;17.59;40.83;101248.81;4808526;29;1395;-61
2022/05/12 07:49:05;;;;;;;;;;;;;;;17.54;39.84;101245.22;4808763;29;1224;-61
2022/05/12 07:51:31;;;;;;;;;;;;;;;17.42;39.77;101242.69;4807927;29;1186;-61
2022/05/12 07:53:56;;;;;;;;;;;;;;;17.32;39.29;101242.63;4806848;29;1926;-61
2022/05/12 07:56:22;;;;;;;;;;;;;;;17.22;39.07;101241.50;4808537;29;816;-61
2022/05/12 07:58:48;;;;;;;;;;;;;;;17.18;38.75;101236.78;4807858;29;1309;-62
2022/05/12 08:01:14;;;;;;;;;;;;;;;17.14;39.16;101242.00;4808361;29;1023;-60
2022/05/12 08:03:39;;;;;;;;;;;;;;;17.19;40.05;101227.47;4809136;29;828;-61
2022/05/12 08:06:05;;;;;;;;;;;;;;;17.56;41.88;101237.53;4808756;29;890;-61
2022/05/12 08:08:30;;;;;;;;;;;;;;;17.90;43.80;101239.84;4809055;29;855;-61
2022/05/12 08:10:56;;;;;;;;;;;;;;;18.19;45.64;101245.72;4809212;29;793;-60
2022/05/12 08:13:21;;;;;;;;;;;;;;;18.47;46.97;101251.78;4809033;29;1907;-60
2022/05/12 08:15:49;;;;;;;;;;;;;;;18.72;47.29;101242.69;4807842;29;820;-61
2022/05/12 08:18:18;;;;;;;;;;;;;;;18.71;47.28;101241.03;4806778;29;1364;-60
2022/05/12 08:20:44;;;;;;;;;;;;;;;18.54;46.47;101243.28;4808754;29;856;-61
2022/05/12 08:23:10;;;;;;;;;;;;;;;18.35;45.46;101238.28;4807594;29;1602;-61
2022/05/12 08:25:35;;;;;;;;;;;;;;;18.17;44.15;101236.06;4806452;29;1546;-60
2022/05/12 08:28:00;;;;;;;;;;;;;;;18.03;43.15;101228.31;4802124;29;1563;-59
2022/05/12 08:30:26;;;;;;;;;;;;;;;17.86;41.97;101230.47;4807453;29;941;-59
2022/05/12 08:32:51;;;;;;;;;;;;;;;17.72;41.17;101236.47;4790076;29;1973;-60
2022/05/12 08:35:17;;;;;;;;;;;;;;;17.63;40.76;101221.59;4790258;29;757;-59
2022/05/12 08:37:42;;;;;;;;;;;;;;;17.52;40.32;101225.41;4799030;29;1632;-59
2022/05/12 08:40:11;;;;;;;;;;;;;;;17.42;39.98;101216.03;4807148;29;1392;-59
2022/05/12 08:42:41;;;;;;;;;;;;;;;17.38;39.53;101225.09;4808304;29;1241;-59
2022/05/12 08:45:07;;;;;;;;;;;;;;;17.27;39.39;101229.69;4805676;29;883;-60
2022/05/12 08:47:36;;;;;;;;;;;;;;;17.24;39.23;101236.56;4806048;29;1530;-60
2022/05/12 08:50:03;;;;;;;;;;;;;;;17.18;39.21;101225.78;4800686;29;2036;-59
2022/05/12 08:52:39;;;;;;;;;;;;;;;17.10;38.99;101216.97;4807108;29;1980;-61
2022/05/12 08:55:04;;;;;;;;;;;;;;;17.09;39.00;101222.72;4811347;29;1221;-61
2022/05/12 08:57:34;;;;;;;;;;;;;;;17.06;39.21;101228.75;4805948;29;1343;-62
2022/05/12 09:00:00;;;;;;;;;;;;;;;17.13;40.25;101214.78;4809961;29;1534;-60
2022/05/12 09:02:29;;;;;;;;;;;;;;;17.33;41.16;101225.88;4804755;29;1217;-61
2022/05/12 09:04:58;;;;;;;;;;;;;;;17.47;42.34;101217.97;4807563;29;1174;-60
2022/05/12 09:07:28;;;;;;;;;;;;;;;17.58;42.85;101213.34;4809361;29;861;-60
2022/05/12 09:10:13;;;;;;;;;;;;;;;17.66;43.60;101215.56;4814145;29;1182;-61
2022/05/12 09:13:01;;;;;;;;;;;;;;;17.76;43.88;101209.25;4811123;29;1986;-61
2022/05/12 09:15:31;;;;;;;;;;;;;;;17.86;44.33;101216.72;4811317;29;1155;-61
2022/05/12 09:18:03;;;;;;;;;;;;;;;17.88;44.30;101203.50;4811447;29;1170;-60
2022/05/12 09:20:30;;;;;;;;;;;;;;;17.97;44.80;101217.59;4823057;29;1367;-61
2022/05/12 09:22:55;;;;;;;;;;;;;;;18.04;44.71;101213.47;4810272;29;1189;-61
2022/05/12 09:25:34;;;;;;;;;;;;;;;18.08;45.03;101220.09;4812208;29;746;-62
2022/05/12 09:28:15;;;;;;;;;;;;;;;18.10;45.19;101215.16;4811904;29;1044;-61
2022/05/12 09:30:41;;;;;;;;;;;;;;;18.11;45.07;101204.97;4810189;29;1280;-61
2022/05/12 09:33:06;;;;;;;;;;;;;;;18.20;44.87;101206.09;4810311;29;1907;-61
2022/05/12 09:35:31;;;;;;;;;;;;;;;18.22;45.14;101208.56;4811132;29;1228;-60
2022/05/12 09:37:57;;;;;;;;;;;;;;;18.24;45.19;101195.34;4811397;29;843;-58
2022/05/12 09:40:32;;;;;;;;;;;;;;;18.27;45.18;101200.28;4810745;29;756;-57
2022/05/12 09:43:00;;;;;;;;;;;;;;;18.27;45.42;101192.03;4810569;29;945;-58
2022/05/12 09:45:25;;;;;;;;;;;;;;;18.28;45.11;101202.75;4809497;29;1072;-57
2022/05/12 09:47:52;;;;;;;;;;;;;;;18.15;44.14;101200.56;4811033;29;894;-59
2022/05/12 09:50:22;;;;;;;;;;;;;;;17.97;43.44;101199.16;4809643;29;904;-58
2022/05/12 09:52:53;;;;;;;;;;;;;;;17.81;42.25;101202.94;4806546;29;1915;-58
2022/05/12 09:55:20;;;;;;;;;;;;;;;17.71;41.45;101201.84;4811359;29;1236;-59
2022/05/12 09:57:53;;;;;;;;;;;;;;;17.65;40.90;101196.59;4810865;29;801;-59
2022/05/12 10:00:31;;;;;;;;;;;;;;;17.51;40.12;101201.75;4810721;29;852;-59
2022/05/12 10:08:26;;;;;;;;;;;;;;;17.28;39.24;101190.13;4810459;29;1153;-58
2022/05/12 10:11:02;;;;;;;;;;;;;;;17.16;39.37;101179.34;4810613;29;1260;-58
2022/05/12 10:13:31;;;;;;;;;;;;;;;17.17;39.24;101177.44;4807871;29;1911;-58
2022/05/12 10:15:56;;;;;;;;;;;;;;;17.20;39.24;101176.91;4810486;29;1395;-59
2022/05/12 10:18:25;;;;;;;;;;;;;;;17.30;40.06;101179.69;4818416;29;1601;-60
2022/05/12 10:20:52;;;;;;;;;;;;;;;17.65;42.27;101178.16;4809309;29;1450;-60
2022/05/12 10:23:21;;;;;;;;;;;;;;;18.21;44.86;101182.13;4816447;29;1241;-58
2022/05/12 10:25:58;;;;;;;;;;;;;;;18.58;46.43;101173.56;4810525;29;1285;-58
2022/05/12 10:28:27;;;;;;;;;;;;;;;18.72;46.66;101184.84;4810554;29;1143;-59
2022/05/12 10:31:11;;;;;;;;;;;;;;;18.42;46.08;101169.19;4808288;29;1185;-59
2022/05/12 10:33:36;;;;;;;;;;;;;;;18.23;44.52;101168.91;4809715;29;1968;-60
2022/05/12 10:36:14;;;;;;;;;;;;;;;18.02;43.49;101174.41;4809960;29;813;-58
2022/05/12 10:38:39;;;;;;;;;;;;;;;17.88;42.26;101170.50;4809047;29;890;-58
2022/05/12 10:41:05;;;;;;;;;;;;;;;17.81;41.50;101173.53;4808251;29;1055;-59
2022/05/12 10:43:49;;;;;;;;;;;;;;;17.71;40.90;101168.84;4808426;29;733;-60
2022/05/12 10:46:34;;;;;;;;;;;;;;;17.57;40.50;101162.19;4802594;29;1032;-59
2022/05/12 10:49:15;;;;;;;;;;;;;;;17.51;40.27;101155.84;4801703;29;1232;-60
2022/05/12 10:51:50;;;;;;;;;;;;;;;17.43;40.03;101168.19;4809438;29;1225;-58
2022/05/12 10:54:34;;;;;;;;;;;;;;;17.40;39.99;101155.00;4810160;29;1915;-59
2022/05/12 10:57:09;;;;;;;;;;;;;;;17.31;39.84;101153.03;4809573;29;1169;-58
2022/05/12 10:59:43;;;;;;;;;;;;;;;17.28;39.57;101154.41;4809173;29;1216;-58
2022/05/12 11:02:17;;;;;;;;;;;;;;;17.33;39.87;101153.59;4809100;29;1209;-58
2022/05/12 11:04:47;;;;;;;;;;;;;;;17.38;40.77;101142.63;4809623;29;852;-59
2022/05/12 11:07:31;;;;;;;;;;;;;;;17.73;42.63;101150.13;4794742;29;1374;-59
2022/05/12 11:10:16;;;;;;;;;;;;;;;18.09;44.24;101154.84;4792142;29;852;-58
2022/05/12 11:12:43;;;;;;;;;;;;;;;18.38;45.75;101138.59;4799241;29;1967;-59
2022/05/12 11:15:10;;;;;;;;;;;;;;;18.59;46.68;101139.44;4793215;29;1408;-57
2022/05/12 11:17:36;;;;;;;;;;;;;;;18.71;46.94;101158.41;4808885;29;1186;-60
2022/05/12 11:20:16;;;;;;;;;;;;;;;18.64;46.63;101142.16;4809553;29;867;-61
2022/05/12 11:23:07;;;;;;;;;;;;;;;18.43;45.63;101140.56;4812231;29;868;-60
2022/05/12 11:25:42;;;;;;;;;;;;;;;18.23;43.81;101150.47;4802438;29;1445;-60
2022/05/12 11:31:27;;;;;;;;;;;;;;;17.92;41.55;101139.47;4789016;29;1213;-62
2022/05/12 11:33:53;;;;;;;;;;;;;;;17.85;41.06;101140.78;4823506;29;1900;-60
2022/05/12 11:36:19;;;;;;;;;;;;;;;17.78;40.59;101128.13;4809602;29;825;-60
2022/05/12 11:38:51;;;;;;;;;;;;;;;17.60;40.47;101131.41;4809982;29;909;-61
2022/05/12 11:41:20;;;;;;;;;;;;;;;17.60;40.18;101125.91;4809407;29;894;-62
2022/05/12 11:46:31;;;;;;;;;;;;;;;17.47;39.87;101127.22;4804741;29;1222;-61
2022/05/12 11:49:14;;;;;;;;;;;;;;;17.41;39.75;101131.88;4806489;29;1240;-65
2022/05/12 11:51:48;;;;;;;;;;;;;;;17.36;39.67;101118.16;4808010;29;1237;-61
2022/05/12 11:54:23;;;;;;;;;;;;;;;17.33;39.46;101118.66;4807443;29;1915;-61
2022/05/12 11:56:50;;;;;;;;;;;;;;;17.32;39.31;101117.03;4809139;29;905;-61
2022/05/12 11:59:17;;;;;;;;;;;;;;;17.23;39.43;101110.41;4808144;29;1467;-61
2022/05/12 12:01:49;;;;;;;;;;;;;;;17.24;39.42;101109.31;4808229;29;1388;-60
2022/05/12 12:04:15;;;;;;;;;;;;;;;17.20;39.38;101113.69;4808882;29;1539;-59
2022/05/12 12:06:47;;;;;;;;;;;;;;;17.18;39.39;101104.88;4808806;29;1349;-61
2022/05/12 12:09:25;;;;;;;;;;;;;;;17.08;39.42;101103.75;4808707;29;1277;-62
2022/05/12 12:11:50;;;;;;;;;;;;;;;17.06;39.61;101097.69;4808963;29;920;-62
2022/05/12 12:14:34;;;;;;;;;;;;;;;17.25;40.42;101105.44;4808329;29;1903;-62
2022/05/12 12:17:07;;;;;;;;;;;;;;;17.71;43.29;101107.47;4808650;29;1021;-65
2022/05/12 12:19:52;;;;;;;;;;;;;;;18.21;45.14;101094.03;4807548;29;1499;-62
2022/05/12 12:22:18;;;;;;;;;;;;;;;18.60;46.50;101085.16;4806574;29;1701;-61
2022/05/12 12:24:49;;;;;;;;;;;;;;;18.85;47.22;101087.00;4808841;29;1396;-62
2022/05/12 12:27:16;;;;;;;;;;;;;;;18.66;46.73;101081.28;4823221;29;1008;-62
2022/05/12 12:29:43;;;;;;;;;;;;;;;18.39;45.71;101085.19;4808917;29;847;-62
2022/05/12 12:32:23;;;;;;;;;;;;;;;18.22;44.33;101084.69;4807262;29;1232;-62
2022/05/12 12:34:52;;;;;;;;;;;;;;;18.04;42.79;101077.81;4803221;29;1907;-63
2022/05/12 12:37:38;;;;;;;;;;;;;;;17.87;42.07;101073.38;4806197;29;1284;-62
2022/05/12 12:40:21;;;;;;;;;;;;;;;17.76;41.04;101069.00;4799812;29;1778;-61
2022/05/12 12:42:47;;;;;;;;;;;;;;;17.66;40.80;101066.25;4802471;29;1193;-63
2022/05/12 12:45:14;;;;;;;;;;;;;;;17.61;40.18;101059.63;4809559;29;1224;-64
2022/05/12 12:47:41;;;;;;;;;;;;;;;17.56;39.97;101061.56;4809557;29;1190;-62
2022/05/12 12:50:09;;;;;;;;;;;;;;;17.47;39.80;101058.50;4811030;29;1208;-60
2022/05/12 12:52:39;;;;;;;;;;;;;;;17.44;39.60;101062.63;4808540;29;1408;-61
2022/05/12 12:57:57;;;;;;;;;;;;;;;17.37;39.21;101056.56;4818053;29;1463;-60
2022/05/12 13:00:32;;;;;;;;;;;;;;;17.32;39.40;101047.47;4808079;29;825;-61
2022/05/12 13:03:04;;;;;;;;;;;;;;;17.26;39.49;101041.16;4811968;29;1423;-62
2022/05/12 13:05:30;;;;;;;;;;;;;;;17.19;39.28;101035.09;4811778;29;1490;-62
2022/05/12 13:07:59;;;;;;;;;;;;;;;17.18;39.56;101038.94;4812116;29;787;-60
2022/05/12 13:10:25;;;;;;;;;;;;;;;17.17;39.48;101034.56;4811424;29;1205;-62
2022/05/12 13:13:03;;;;;;;;;;;;;;;17.31;40.73;101032.09;4810608;29;1911;-59
2022/05/12 13:15:32;;;;;;;;;;;;;;;17.70;42.76;101029.66;4811203;29;1305;-61
2022/05/12 13:17:59;;;;;;;;;;;;;;;18.06;44.41;101042.59;4812103;29;766;-62
2022/05/12 13:20:26;;;;;;;;;;;;;;;18.37;45.68;101037.03;4811505;29;761;-61